PINE FLAT DAM (PNF)

Elevation: 970' · KINGS R basin · Operator: US Army Corps of Engineers

Provisional data, subject to change.
Query executed Wednesday at 11:43:18   clock

Select a sensor type for a plot of data.
Note: Reservoir Flows are daily averages.

Earlier

Date RES ELE    STORAGE    RES CHG    TOC STO    ABV TOC    OUTFLOW    INFLOW    FNF    PPT INC    TEMP MN    TEMP MX    WINDLEN    EVP PAN   
 FEET   AF   AF   AF   AF   CFS   CFS   CFS   INCHES   DEG F   DEG F   MILES   INCHES  
03/17/2014 762.35 207166 794 870000 -662834 152 566 664 0.00 48 73 -- 0.19
03/18/2014 762.70 208064 898 873000 -664936 150 614 679 0.00 43 75 -- 0.16
03/19/2014 763.04 208939 875 875900 -666961 150 604 716 0.00 45 81 -- 0.18
03/20/2014 763.40 209868 929 878900 -669032 150 630 696 0.00 46 80 -- 0.16
03/21/2014 763.74 210747 879 881800 -- 151 607 687 0.00 46 80 -- 0.17
03/22/2014 764.10 211679 932 884800 -673121 155 638 701 0.00 44 78 -- 0.18
03/23/2014 764.44 212562 883 887700 -675138 155 613 649 0.00 45 80 -- 0.18
03/24/2014 764.86 213655 1093 890700 -677045 155 720 666 0.00 46 85 -- 0.19
03/25/2014 765.15 214412 757 893600 -679188 157 551 734 0.00 48 78 -- 0.17
03/26/2014 765.54 215432 1020 896600 -681168 158 678 841 0.33 50 62 -- 0.08
03/27/2014 765.95 216507 1075 899500 -682993 155 707 812 0.00 41 68 -- 0.13
03/28/2014 766.34 217532 1025 902500 -684968 151 680 735 0.00 44 73 -- 0.16
03/29/2014 766.71 218506 974 905500 -686994 150 652 804 0.10 48 76 -- 0.15
03/30/2014 767.18 219748 1242 908400 -688652 149 786 986 0.27 46 66 -- 0.15
03/31/2014 767.69 221099 1351 911400 -690301 162 849 970 0.52 43 64 -- 0.08
04/01/2014 768.14 222296 1197 914300 -692004 170 785 899 0.02 40 63 -- 0.15
04/02/2014 768.66 223682 1386 917300 -693618 169 877 1076 0.20 43 62 -- 0.13
04/03/2014 769.10 224859 1177 920200 -695341 169 773 867 0.00 42 69 -- 0.14
04/04/2014 769.55 226065 1206 923200 -697135 177 798 841 0.00 44 69 -- 0.17
04/05/2014 769.99 227249 1184 926100 -698851 181 792 885 0.00 39 69 -- 0.18
04/06/2014 770.41 228381 1132 929100 -700719 182 767 878 0.00 44 76 -- 0.19
04/07/2014 770.99 229950 1569 932000 -702050 185 993 1169 0.00 48 89 -- 0.22
04/08/2014 771.66 231770 1820 935000 -703230 206 1139 1461 0.00 54 89 -- 0.20
04/09/2014 772.49 234034 2264 938000 -703966 214 1374 1682 0.00 54 92 -- 0.24
04/10/2014 773.32 236311 2277 940900 -704589 232 1399 1754 0.00 55 89 -- 0.24
04/11/2014 774.17 238654 2343 943900 -705246 231 1429 1897 0.00 59 90 -- 0.21
04/12/2014 775.13 241315 2661 946800 -705485 231 1591 2076 0.00 54 83 -- 0.23
04/13/2014 776.11 244047 2732 949800 -705753 230 1624 2098 0.00 50 81 -- 0.21
04/14/2014 777.19 247078 3031 952700 -705622 225 1771 2324 0.00 54 88 -- 0.23
04/15/2014 778.38 250440 3362 955700 -705260 233 1947 2499 0.00 54 89 -- 0.24
04/16/2014 -- -- -- -- -- -- -- -- -- -- -- -- --

Later | Latest

Warning! This data is preliminary and subject to revision.

Download Data Now Download Data Now | Show PNF Map | Plot PNF Data | 1 Month PNF Data | Real-Time PNF Data | PNF Info